createdAt,value
2017-07-12T00:01:13.890Z,16.70
2017-07-12T00:03:42.777Z,17.17
2017-07-12T00:06:11.689Z,15.97
2017-07-12T00:08:40.566Z,18.43
2017-07-12T00:11:09.467Z,16.10
2017-07-12T00:13:38.348Z,15.67
2017-07-12T00:16:07.264Z,17.23
2017-07-12T00:18:36.153Z,16.43
2017-07-12T00:21:05.054Z,15.60
2017-07-12T00:23:33.930Z,18.00
2017-07-12T00:26:02.836Z,16.50
2017-07-12T00:28:36.529Z,17.47
2017-07-12T00:31:05.425Z,16.17
2017-07-12T00:33:34.312Z,16.77
2017-07-12T00:36:03.223Z,15.37
2017-07-12T00:38:32.169Z,16.70
2017-07-12T00:41:01.055Z,17.33
2017-07-12T00:43:29.958Z,16.50
2017-07-12T00:45:58.849Z,18.27
2017-07-12T00:48:27.754Z,17.63
2017-07-12T00:50:56.640Z,18.13
2017-07-12T00:53:25.558Z,16.67
2017-07-12T00:55:54.433Z,19.47
2017-07-12T00:58:23.341Z,19.10
2017-07-12T01:00:52.221Z,17.53
2017-07-12T01:03:21.132Z,17.63
2017-07-12T01:05:50.014Z,18.43
2017-07-12T01:08:18.908Z,18.30
2017-07-12T01:10:47.797Z,19.13
2017-07-12T01:13:16.690Z,18.60
2017-07-12T01:15:45.579Z,19.30
2017-07-12T01:18:14.469Z,19.17
2017-07-12T01:20:43.391Z,20.23
2017-07-12T01:23:12.292Z,20.30
2017-07-12T01:25:41.201Z,20.80
2017-07-12T01:28:10.093Z,19.50
2017-07-12T01:30:38.994Z,18.50
2017-07-12T01:33:07.879Z,18.80
2017-07-12T01:35:36.788Z,19.27
2017-07-12T01:38:05.664Z,19.90
2017-07-12T01:40:34.579Z,19.57
2017-07-12T01:43:03.462Z,18.40
2017-07-12T01:45:32.363Z,18.53
2017-07-12T01:48:01.250Z,18.47
2017-07-12T01:50:30.163Z,18.53
2017-07-12T01:52:59.058Z,19.57
2017-07-12T01:55:27.993Z,19.90
2017-07-12T01:57:56.879Z,18.90
2017-07-12T02:00:25.774Z,17.93
2017-07-12T02:02:54.653Z,18.03
2017-07-12T02:05:23.538Z,19.00
2017-07-12T02:07:52.427Z,19.03
2017-07-12T02:10:21.319Z,18.40
2017-07-12T02:12:50.213Z,18.93
2017-07-12T02:15:19.096Z,18.97
2017-07-12T02:17:47.987Z,18.10
2017-07-12T02:20:16.927Z,21.20
2017-07-12T02:22:45.798Z,19.13
2017-07-12T02:25:14.694Z,21.00
2017-07-12T02:27:43.640Z,18.83
2017-07-12T02:30:12.546Z,20.03
2017-07-12T02:32:41.455Z,20.33
2017-07-12T02:35:10.344Z,21.13
2017-07-12T02:37:39.361Z,21.00
2017-07-12T02:42:43.758Z,18.67
2017-07-12T02:45:12.648Z,18.63
2017-07-12T02:47:41.636Z,19.17
2017-07-12T02:50:10.548Z,19.33
2017-07-12T02:52:39.438Z,20.60
2017-07-12T02:55:08.329Z,21.13
2017-07-12T02:57:37.242Z,20.00
2017-07-12T03:00:06.375Z,21.10
2017-07-12T03:02:35.268Z,20.33
2017-07-12T03:05:04.156Z,22.27
2017-07-12T03:07:33.051Z,22.40
2017-07-12T03:10:01.970Z,21.30
2017-07-12T03:12:30.864Z,22.83
2017-07-12T03:14:59.750Z,22.80
2017-07-12T03:17:28.642Z,22.17
2017-07-12T03:19:57.559Z,21.07
2017-07-12T03:22:26.446Z,20.10
2017-07-12T03:24:55.359Z,22.20
2017-07-12T03:27:24.237Z,20.20
2017-07-12T03:29:53.133Z,21.97
2017-07-12T03:32:22.023Z,21.00
2017-07-12T03:34:50.893Z,20.57
2017-07-12T03:37:19.819Z,21.60
2017-07-12T03:39:54.710Z,22.33
2017-07-12T03:42:23.610Z,22.63
2017-07-12T03:44:52.548Z,20.80
2017-07-12T03:47:21.519Z,19.70
2017-07-12T03:49:50.482Z,20.40
2017-07-12T03:52:19.385Z,19.60
2017-07-12T03:54:48.271Z,18.90
2017-07-12T03:57:17.186Z,19.83
2017-07-12T03:59:46.092Z,21.27
2017-07-12T04:02:14.993Z,20.40
2017-07-12T04:04:43.869Z,20.73
2017-07-12T04:07:12.813Z,20.87
2017-07-12T04:09:41.669Z,19.53
2017-07-12T04:12:10.540Z,19.73
2017-07-12T04:14:39.434Z,20.37
2017-07-12T04:17:08.315Z,20.13
2017-07-12T04:19:37.226Z,20.43
2017-07-12T04:22:06.118Z,20.60
2017-07-12T04:24:35.014Z,20.30
2017-07-12T04:27:03.898Z,18.90
2017-07-12T04:29:32.798Z,20.50
2017-07-12T04:32:01.685Z,22.10
2017-07-12T04:34:30.599Z,22.00
2017-07-12T04:36:59.481Z,18.60
2017-07-12T04:39:28.381Z,20.43
2017-07-12T04:41:57.262Z,20.10
2017-07-12T04:44:26.149Z,20.27
2017-07-12T04:46:55.035Z,19.10
2017-07-12T04:49:23.956Z,19.10
2017-07-12T04:51:52.839Z,19.53
2017-07-12T04:54:21.742Z,19.00
2017-07-12T04:56:50.620Z,17.43
2017-07-12T04:59:19.501Z,17.60
2017-07-12T05:01:48.406Z,18.53
2017-07-12T05:04:17.320Z,16.90
2017-07-12T05:06:46.238Z,16.60
2017-07-12T05:09:15.137Z,16.83
2017-07-12T05:11:44.027Z,17.93
2017-07-12T05:14:12.916Z,17.77
2017-07-12T05:16:41.838Z,18.70
2017-07-12T05:19:10.728Z,17.60
2017-07-12T05:21:39.619Z,17.80
2017-07-12T05:24:08.484Z,16.07
2017-07-12T05:26:37.373Z,15.43
2017-07-12T05:29:06.254Z,15.53
2017-07-12T05:31:35.150Z,15.77
2017-07-12T05:34:04.039Z,15.80
2017-07-12T05:36:32.944Z,15.60
2017-07-12T05:39:01.851Z,16.10
2017-07-12T05:41:30.770Z,15.50
2017-07-12T05:43:59.654Z,15.10
2017-07-12T05:46:28.541Z,16.27
2017-07-12T05:48:57.472Z,14.80
2017-07-12T05:51:26.357Z,14.43
2017-07-12T05:53:55.255Z,13.40
2017-07-12T05:56:24.137Z,14.03
2017-07-12T05:58:53.068Z,15.33
2017-07-12T06:01:21.958Z,17.93
2017-07-12T06:03:50.861Z,16.30
2017-07-12T06:06:19.737Z,17.63
2017-07-12T06:08:48.619Z,19.17
2017-07-12T06:11:17.615Z,16.47
2017-07-12T06:13:46.517Z,17.13
2017-07-12T06:16:15.417Z,16.93
2017-07-12T06:18:44.373Z,17.67
2017-07-12T06:21:13.262Z,18.93
2017-07-12T06:23:42.157Z,16.10
2017-07-12T06:26:11.055Z,13.57
2017-07-12T06:28:39.977Z,12.43
2017-07-12T06:31:08.868Z,12.77
2017-07-12T06:33:37.795Z,13.93
2017-07-12T06:36:06.665Z,12.67
2017-07-12T06:38:35.577Z,11.23
2017-07-12T06:41:04.463Z,12.70
2017-07-12T06:43:33.354Z,12.80
2017-07-12T06:46:02.259Z,11.60
2017-07-12T06:48:31.137Z,10.00
2017-07-12T06:51:00.048Z,11.17
2017-07-12T06:53:28.936Z,10.37
2017-07-12T06:55:57.837Z,11.77
2017-07-12T06:58:26.736Z,11.40
2017-07-12T07:00:55.659Z,11.80
2017-07-12T07:03:40.939Z,12.07
2017-07-12T07:06:09.851Z,12.83
2017-07-12T07:08:38.741Z,11.63
2017-07-12T07:11:07.705Z,10.60
2017-07-12T07:13:36.596Z,10.17
2017-07-12T07:16:05.489Z,9.63
2017-07-12T07:18:34.380Z,11.17
2017-07-12T07:21:03.300Z,8.10
2017-07-12T07:23:32.196Z,9.57
2017-07-12T07:26:01.084Z,8.77
2017-07-12T07:28:29.980Z,9.00
2017-07-12T07:30:58.861Z,9.40
2017-07-12T07:33:27.838Z,8.70
2017-07-12T07:35:56.770Z,8.60
2017-07-12T07:38:25.671Z,10.00
2017-07-12T07:40:54.566Z,9.40
2017-07-12T07:43:23.474Z,9.20
2017-07-12T07:45:52.363Z,9.53
2017-07-12T07:48:21.290Z,8.40
2017-07-12T07:50:50.156Z,8.07
2017-07-12T07:53:19.046Z,8.30
2017-07-12T07:55:47.927Z,8.10
2017-07-12T07:58:16.834Z,7.87
2017-07-12T08:00:45.710Z,8.00
2017-07-12T08:03:14.641Z,6.17
2017-07-12T08:05:43.534Z,8.93
2017-07-12T08:08:12.419Z,8.17
2017-07-12T08:10:41.324Z,7.70
2017-07-12T08:13:10.216Z,8.60
2017-07-12T08:15:39.147Z,7.63
2017-07-12T08:18:08.043Z,8.20
2017-07-12T08:20:36.950Z,6.87
2017-07-12T08:23:05.825Z,6.87
2017-07-12T08:25:34.758Z,6.30
2017-07-12T08:28:03.655Z,6.10
2017-07-12T08:30:32.553Z,5.80
2017-07-12T08:33:01.544Z,5.50
2017-07-12T08:35:30.538Z,5.53
2017-07-12T08:37:59.426Z,5.40
2017-07-12T08:40:28.422Z,4.83
2017-07-12T08:42:57.294Z,6.30
2017-07-12T08:45:26.307Z,5.20
2017-07-12T08:47:55.199Z,4.77
2017-07-12T08:50:24.110Z,4.53
2017-07-12T08:52:53.006Z,4.90
2017-07-12T08:55:21.973Z,5.20
2017-07-12T08:57:50.853Z,4.53
2017-07-12T09:00:19.735Z,4.93
2017-07-12T09:02:48.650Z,4.80
2017-07-12T09:05:17.647Z,4.30
2017-07-12T09:07:46.577Z,4.13
2017-07-12T09:10:15.458Z,4.57
2017-07-12T09:12:44.347Z,3.27
2017-07-12T09:15:13.259Z,3.87
2017-07-12T09:17:42.149Z,3.80
2017-07-12T09:20:11.025Z,5.00
2017-07-12T09:22:39.928Z,4.67
2017-07-12T09:35:04.346Z,4.20
2017-07-12T09:37:33.233Z,3.80
2017-07-12T09:40:02.134Z,4.30
2017-07-12T09:42:31.004Z,4.30
2017-07-12T09:44:59.902Z,4.47
2017-07-12T09:47:28.769Z,3.57
2017-07-12T09:49:57.674Z,4.67
2017-07-12T09:52:26.546Z,3.80
2017-07-12T09:54:55.484Z,4.70
2017-07-12T09:57:24.372Z,3.83
2017-07-12T09:59:53.289Z,4.83
2017-07-12T10:02:22.165Z,4.50
2017-07-12T10:04:51.055Z,4.33
2017-07-12T10:07:19.964Z,5.17
2017-07-12T10:09:48.858Z,5.00
2017-07-12T10:12:17.821Z,4.07
2017-07-12T10:14:46.698Z,5.00
2017-07-12T10:17:15.589Z,4.80
2017-07-12T10:19:44.457Z,5.57
2017-07-12T10:22:13.364Z,5.30
2017-07-12T10:24:42.242Z,5.17
2017-07-12T10:27:11.137Z,5.00
2017-07-12T10:29:40.004Z,5.73
2017-07-12T10:32:08.898Z,5.50
2017-07-12T10:34:37.769Z,5.73
2017-07-12T10:37:06.656Z,6.00
2017-07-12T10:39:35.525Z,5.63
2017-07-12T10:42:04.464Z,5.90
2017-07-12T10:44:33.332Z,6.90
2017-07-12T10:47:02.233Z,5.97
2017-07-12T10:49:31.097Z,6.60
2017-07-12T10:52:00.008Z,7.07
2017-07-12T10:54:28.900Z,6.93
2017-07-12T10:56:57.810Z,7.80
2017-07-12T10:59:26.713Z,7.50
2017-07-12T11:01:55.589Z,7.63
2017-07-12T11:04:24.546Z,7.13
2017-07-12T11:06:53.415Z,7.33
2017-07-12T11:09:22.315Z,6.37
2017-07-12T11:11:51.198Z,6.00
2017-07-12T11:14:20.138Z,6.60
2017-07-12T11:16:49.034Z,7.80
2017-07-12T11:19:17.959Z,6.50
2017-07-12T11:21:46.829Z,6.50
2017-07-12T11:24:15.727Z,8.70
2017-07-12T11:26:44.605Z,6.60
2017-07-12T11:29:13.487Z,6.90
2017-07-12T11:31:42.362Z,6.67
2017-07-12T11:34:11.258Z,7.10
2017-07-12T11:36:40.127Z,7.10
2017-07-12T11:39:09.044Z,7.77
2017-07-12T11:41:37.923Z,6.60
2017-07-12T11:44:06.799Z,6.47
2017-07-12T11:46:35.695Z,7.37
2017-07-12T11:49:04.590Z,7.10
2017-07-12T11:51:33.488Z,7.87
2017-07-12T11:54:02.373Z,9.00
2017-07-12T11:56:31.281Z,8.87
2017-07-12T11:59:00.207Z,10.10
2017-07-12T12:01:29.094Z,8.57
2017-07-12T12:03:57.976Z,8.57
2017-07-12T12:06:27.675Z,9.50
2017-07-12T12:08:56.553Z,9.10
2017-07-12T12:11:25.461Z,10.60
2017-07-12T12:13:54.371Z,10.20
2017-07-12T12:16:23.277Z,8.60
2017-07-12T12:18:52.156Z,10.70
2017-07-12T12:21:21.054Z,10.23
2017-07-12T12:23:49.932Z,9.97
2017-07-12T12:26:18.817Z,10.30
2017-07-12T12:28:47.698Z,9.03
2017-07-12T12:31:16.580Z,8.57
2017-07-12T12:33:45.486Z,9.50
2017-07-12T12:36:14.362Z,9.93
2017-07-12T12:38:43.251Z,8.80
2017-07-12T12:41:12.122Z,8.70
2017-07-12T12:43:41.019Z,8.87
2017-07-12T12:46:09.908Z,8.80
2017-07-12T12:48:38.810Z,10.37
2017-07-12T12:51:07.702Z,9.67
2017-07-12T12:53:36.613Z,9.60
2017-07-12T12:56:05.495Z,9.17
2017-07-12T12:58:34.390Z,8.80
2017-07-12T13:01:03.271Z,9.87
2017-07-12T13:03:32.183Z,9.80
2017-07-12T13:06:01.065Z,10.10
2017-07-12T13:08:29.956Z,9.83
2017-07-12T13:10:58.848Z,11.07
2017-07-12T13:13:27.731Z,11.77
2017-07-12T13:15:56.627Z,8.77
2017-07-12T13:18:25.515Z,10.03
2017-07-12T13:20:54.438Z,10.47
2017-07-12T13:23:23.324Z,9.37
2017-07-12T13:25:52.222Z,9.97
2017-07-12T13:28:21.108Z,10.93
2017-07-12T13:30:50.048Z,9.40
2017-07-12T13:33:18.912Z,8.90
2017-07-12T13:35:47.817Z,10.47
2017-07-12T13:38:16.692Z,9.60
2017-07-12T13:40:45.587Z,9.10
2017-07-12T13:43:14.477Z,10.87
2017-07-12T13:45:43.378Z,9.83
2017-07-12T13:48:12.262Z,11.57
2017-07-12T13:50:41.161Z,9.30
2017-07-12T13:53:10.070Z,11.13
2017-07-12T13:55:38.967Z,8.90
2017-07-12T13:58:07.863Z,10.33
2017-07-12T14:00:36.845Z,11.57
2017-07-12T14:03:05.718Z,9.33
2017-07-12T14:05:34.594Z,10.40
2017-07-12T14:08:03.486Z,9.60
2017-07-12T14:10:32.386Z,9.37
2017-07-12T14:13:01.305Z,9.53
2017-07-12T14:15:30.207Z,10.80
2017-07-12T14:17:59.107Z,11.10
2017-07-12T14:20:28.000Z,9.40
2017-07-12T14:22:56.904Z,9.00
2017-07-12T14:25:25.812Z,10.20
2017-07-12T14:27:54.711Z,9.87
2017-07-12T14:30:23.594Z,9.33
2017-07-12T14:32:52.504Z,10.20
2017-07-12T14:35:21.399Z,9.57
2017-07-12T14:37:50.315Z,10.77
2017-07-12T14:40:19.205Z,10.77
2017-07-12T14:42:48.133Z,10.03
2017-07-12T14:45:17.046Z,9.20
2017-07-12T14:47:45.927Z,11.00
2017-07-12T14:50:14.836Z,8.83
2017-07-12T14:52:43.724Z,10.40
2017-07-12T14:55:12.687Z,11.13
2017-07-12T14:57:41.562Z,9.73
2017-07-12T15:00:10.462Z,10.37
2017-07-12T15:02:39.354Z,10.50
2017-07-12T15:05:08.273Z,10.40
2017-07-12T15:07:37.163Z,9.77
2017-07-12T15:10:06.088Z,8.87
2017-07-12T15:12:34.983Z,10.60
2017-07-12T15:15:03.881Z,10.23
2017-07-12T15:17:32.767Z,9.13
2017-07-12T15:20:01.706Z,10.03
2017-07-12T15:22:30.592Z,10.97
2017-07-12T15:24:59.486Z,9.90
2017-07-12T15:27:28.360Z,11.57
2017-07-12T15:29:57.286Z,11.50
2017-07-12T15:32:26.154Z,10.80
2017-07-12T15:34:55.059Z,10.73
2017-07-12T15:37:23.971Z,14.33
2017-07-12T15:39:52.869Z,12.80
2017-07-12T15:42:21.779Z,15.00
2017-07-12T15:44:50.680Z,12.83
2017-07-12T15:47:19.600Z,11.70
2017-07-12T15:49:48.495Z,13.50
2017-07-12T15:52:17.404Z,18.50
2017-07-12T15:54:46.309Z,17.00
2017-07-12T15:57:15.202Z,16.57
2017-07-12T15:59:44.079Z,20.37
2017-07-12T16:02:12.987Z,16.70
2017-07-12T16:04:41.881Z,14.43
2017-07-12T16:07:10.773Z,12.70
2017-07-12T16:09:39.663Z,8.40
2017-07-12T16:12:08.562Z,9.40
2017-07-12T16:14:37.437Z,8.60
2017-07-12T16:17:06.324Z,9.07
2017-07-12T16:19:35.193Z,10.47
2017-07-12T16:22:04.079Z,11.40
2017-07-12T16:24:32.985Z,12.00
2017-07-12T16:27:01.874Z,10.10
2017-07-12T16:29:30.775Z,10.40
2017-07-12T16:31:59.652Z,11.10
2017-07-12T16:34:28.546Z,9.87
2017-07-12T16:36:57.426Z,10.13
2017-07-12T16:39:26.325Z,11.20
2017-07-12T16:41:55.204Z,10.70
2017-07-12T16:44:24.105Z,8.70
2017-07-12T16:46:52.993Z,10.40
2017-07-12T16:49:21.890Z,8.53
2017-07-12T16:51:50.772Z,5.60
2017-07-12T16:54:19.654Z,5.67
2017-07-12T16:56:48.553Z,6.50
2017-07-12T16:59:17.436Z,6.60
2017-07-12T17:01:46.421Z,5.63
2017-07-12T17:04:15.263Z,5.40
2017-07-12T17:06:44.160Z,5.10
2017-07-12T17:09:13.033Z,4.20
2017-07-12T17:11:41.917Z,4.47
2017-07-12T17:14:10.807Z,3.77
2017-07-12T17:16:39.704Z,4.20
2017-07-12T17:19:08.579Z,4.00
2017-07-12T17:21:37.480Z,3.87
2017-07-12T17:24:06.374Z,3.73
2017-07-12T17:26:35.276Z,3.80
2017-07-12T17:29:04.170Z,4.43
2017-07-12T17:31:33.067Z,3.80
2017-07-12T17:34:01.959Z,4.57
2017-07-12T17:36:30.879Z,3.97
2017-07-12T17:38:59.766Z,3.80
2017-07-12T17:41:28.667Z,4.20
2017-07-12T17:43:57.549Z,5.23
2017-07-12T17:46:26.443Z,4.20
2017-07-12T17:48:55.333Z,5.33
2017-07-12T17:51:24.210Z,6.77
2017-07-12T17:53:53.103Z,6.77
2017-07-12T17:56:21.996Z,4.73
2017-07-12T17:58:50.890Z,5.10
2017-07-12T18:01:19.757Z,4.07
2017-07-12T18:03:48.660Z,4.70
2017-07-12T18:06:17.559Z,3.10
2017-07-12T18:08:46.463Z,3.07
2017-07-12T18:11:15.338Z,3.67
2017-07-12T18:13:44.234Z,3.40
2017-07-12T18:16:13.123Z,3.60
2017-07-12T18:18:42.037Z,3.70
2017-07-12T18:21:10.923Z,3.53
2017-07-12T18:23:39.814Z,4.37
2017-07-12T18:26:08.686Z,4.03
2017-07-12T18:28:37.570Z,4.77
2017-07-12T18:31:06.467Z,4.00
2017-07-12T18:33:35.352Z,4.93
2017-07-12T18:36:04.251Z,6.47
2017-07-12T18:38:33.126Z,5.50
2017-07-12T18:41:02.040Z,5.10
2017-07-12T18:43:30.929Z,5.70
2017-07-12T18:45:59.837Z,5.30
2017-07-12T18:48:28.710Z,5.30
2017-07-12T18:50:57.598Z,4.63
2017-07-12T18:53:26.531Z,4.50
2017-07-12T18:55:55.394Z,4.47
2017-07-12T18:58:24.271Z,5.07
2017-07-12T19:00:53.188Z,3.77
2017-07-12T19:03:22.067Z,4.03
2017-07-12T19:05:50.958Z,3.60
2017-07-12T19:08:19.838Z,4.43
2017-07-12T19:10:48.733Z,4.13
2017-07-12T19:13:17.668Z,3.80
2017-07-12T19:15:46.556Z,3.73
2017-07-12T19:18:15.457Z,3.90
2017-07-12T19:20:45.211Z,3.90
2017-07-12T19:23:14.104Z,2.90
2017-07-12T19:25:42.989Z,2.70
2017-07-12T19:28:11.906Z,3.07
2017-07-12T19:30:40.780Z,3.13
2017-07-12T19:33:09.687Z,3.63
2017-07-12T19:35:38.561Z,4.30
2017-07-12T19:38:07.451Z,2.50
2017-07-12T19:40:36.367Z,2.50
2017-07-12T19:43:05.255Z,2.20
2017-07-12T19:45:34.189Z,2.47
2017-07-12T19:48:03.098Z,2.20
2017-07-12T19:50:31.961Z,2.50
2017-07-12T19:53:00.840Z,2.67
2017-07-12T19:55:29.802Z,2.37
2017-07-12T19:57:58.703Z,2.47
2017-07-12T20:00:27.597Z,3.03
2017-07-12T20:02:56.482Z,3.30
2017-07-12T20:05:25.370Z,2.67
2017-07-12T20:07:54.252Z,4.37
2017-07-12T20:10:23.181Z,3.57
2017-07-12T20:12:52.080Z,3.33
2017-07-12T20:15:20.989Z,3.30
2017-07-12T20:17:49.904Z,2.83
2017-07-12T20:20:18.821Z,4.60
2017-07-12T20:22:47.702Z,4.13
2017-07-12T20:25:16.660Z,3.87
2017-07-12T20:27:45.538Z,3.90
2017-07-12T20:30:14.421Z,3.80
2017-07-12T20:32:43.313Z,4.53
2017-07-12T20:35:12.211Z,4.40
2017-07-12T20:37:41.111Z,4.40
2017-07-12T20:40:10.017Z,4.60
2017-07-12T20:42:38.909Z,4.70
2017-07-12T20:45:07.793Z,5.17
2017-07-12T20:47:36.752Z,4.60
2017-07-12T20:50:05.659Z,5.47
2017-07-12T20:52:34.536Z,5.33
2017-07-12T20:55:03.443Z,4.00
2017-07-12T20:57:32.333Z,4.00
2017-07-12T21:00:01.231Z,3.53
2017-07-12T21:02:30.110Z,3.93
2017-07-12T21:04:59.005Z,3.73
2017-07-12T21:07:27.882Z,2.63
2017-07-12T21:09:56.779Z,2.70
2017-07-12T21:12:25.679Z,2.40
2017-07-12T21:14:54.581Z,2.17
2017-07-12T21:17:23.472Z,2.30
2017-07-12T21:19:52.353Z,2.10
2017-07-12T21:22:21.279Z,1.87
2017-07-12T21:24:50.172Z,1.73
2017-07-12T21:27:19.065Z,2.83
2017-07-12T21:29:47.952Z,2.40
2017-07-12T21:32:16.886Z,2.10
2017-07-12T21:34:45.784Z,1.23
2017-07-12T21:37:14.724Z,1.60
2017-07-12T21:39:43.597Z,1.50
2017-07-12T21:42:12.496Z,2.10
2017-07-12T21:44:41.385Z,1.70
2017-07-12T21:47:10.299Z,2.70
2017-07-12T21:49:39.951Z,1.87
2017-07-12T21:52:08.837Z,1.90
2017-07-12T21:54:49.221Z,2.30
2017-07-12T21:57:29.722Z,2.57
2017-07-12T22:00:10.242Z,2.20
2017-07-12T22:02:50.754Z,3.23
2017-07-12T22:05:31.273Z,2.40
2017-07-12T22:08:11.834Z,2.33
2017-07-12T22:10:52.341Z,2.37
2017-07-12T22:13:32.717Z,2.50
2017-07-12T22:16:13.165Z,2.67
2017-07-12T22:18:53.704Z,2.70
2017-07-12T22:21:34.165Z,3.07
2017-07-12T22:24:14.651Z,2.27
2017-07-12T22:26:55.230Z,3.30
2017-07-12T22:29:35.837Z,3.10
2017-07-12T22:32:16.422Z,3.23
2017-07-12T22:34:57.009Z,4.07
2017-07-12T22:37:34.969Z,3.40
2017-07-12T22:40:09.782Z,4.30
2017-07-12T22:42:44.482Z,4.60
2017-07-12T22:45:13.383Z,4.63
2017-07-12T22:47:42.266Z,5.90
2017-07-12T22:50:11.158Z,4.10
2017-07-12T22:52:40.022Z,4.53
2017-07-12T22:55:08.910Z,5.33
2017-07-12T22:57:37.801Z,5.17
2017-07-12T23:00:06.707Z,4.70
2017-07-12T23:02:35.614Z,5.30
2017-07-12T23:05:04.481Z,5.10
2017-07-12T23:07:33.368Z,4.77
2017-07-12T23:10:02.263Z,3.70
2017-07-12T23:12:31.149Z,4.83
2017-07-12T23:15:00.038Z,4.67
2017-07-12T23:17:28.939Z,4.20
2017-07-12T23:19:57.819Z,4.30
2017-07-12T23:22:26.713Z,4.80
2017-07-12T23:24:56.375Z,5.20
2017-07-12T23:27:25.274Z,4.60
2017-07-12T23:29:54.162Z,4.07
2017-07-12T23:32:23.072Z,3.90
2017-07-12T23:34:51.950Z,4.57
2017-07-12T23:37:20.851Z,4.57
2017-07-12T23:39:49.726Z,5.03
2017-07-12T23:42:18.605Z,3.97
2017-07-12T23:44:47.510Z,4.60
2017-07-12T23:47:16.383Z,4.17
2017-07-12T23:49:45.282Z,4.27
2017-07-12T23:52:14.154Z,3.50
2017-07-12T23:54:43.057Z,4.40
2017-07-12T23:57:17.122Z,3.47
2017-07-12T23:59:46.018Z,3.33
